lunedì 23 ottobre 2017

MIL188-141A / UKE304 / XSS


Aircraft UKE304 requesting to XSS, RAF base in UK, Meteorological Air Report...




.....

[2017-10-23 11:58:05] [NORMAL MODE][TO][?][TO][?][CMD AMD][EGVN 230850Z 21005KT 9999 OVC008 13/12 Q1016 ][TIS][XSS][EOM]
[2017-10-23 11:58:16]
[2017-10-23 11:58:16] [NORMAL MODE][TO][?][TO][?][CMD AMD][TEMPO 6000 -RADZ SCT006 ][TIS][XSS][EOM]
[2017-10-23 11:58:42]
[2017-10-23 11:58:42] [NORMAL MODE][TO][?][TO][?][CMD AMD][TAF EGVN 230734Z 2309/2409 24008KT 9999 BKN010 ][TIS][XSS][EOM]

.......

[2017-10-23 11:59:34] [NORMAL MODE][TO][?][EOM]
[2017-10-23 11:59:37]
[2017-10-23 11:59:37] [NORMAL MODE][TIS][XSS][EOM]
[2017-10-23 11:59:44]
[2017-10-23 11:59:44] [NORMAL MODE][TO][?][TO][?][CMD AMD][ 3000 RADZ SCT003 ][TIS][XSS][EOM]
[2017-10-23 11:59:57]
[2017-10-23 11:59:57] [NORMAL MODE][TO][?][TO][?][CMD AMD][BECMG 23132315 FEW015 PROB30 ][TIS][XSS][EOM]
[2017-10-23 12:00:08]
[2017-10-23 12:00:08] [NORMAL MODE][TO][?][TO][?][CMD AMD][TEMPO 2315/2317 SCCT010 ][TIS][XSS][EOM]
[2017-10-23 12:00:23]
[2017-10-23 12:00:23] [NORMAL MODE][TO][?]

......

[2017-10-23 12:00:42] [NORMAL MODE][TO][?][TO][?][CMD AMD][TEMO 2400/2408 3000 -RADZ BKN004 ][TIS][XSS][EOM]
[2017-10-23 12:00:48]
[2017-10-23 12:00:48] [NORMAL MODE][TO][?][TO][?][EOM]
[2017-10-23 12:00:51]
[2017-10-23 12:00:51] [NORMAL MODE][TIS][XSS][EOM]




Whole session....

0 commenti:

Posta un commento